createdAt,value
2019-03-23T00:01:29.642Z,9.80
2019-03-23T00:04:00.812Z,9.80
2019-03-23T00:06:31.451Z,9.50
2019-03-23T00:09:03.049Z,9.50
2019-03-23T00:11:33.414Z,9.40
2019-03-23T00:14:03.535Z,9.00
2019-03-23T00:16:33.813Z,8.70
2019-03-23T00:19:04.791Z,8.60
2019-03-23T00:21:35.176Z,8.30
2019-03-23T00:24:05.151Z,7.60
2019-03-23T00:26:40.872Z,7.50
2019-03-23T00:29:11.887Z,6.80
2019-03-23T00:31:49.564Z,6.70
2019-03-23T00:34:26.268Z,7.00
2019-03-23T00:36:56.721Z,6.80
2019-03-23T00:39:27.029Z,6.60
2019-03-23T00:41:57.905Z,6.50
2019-03-23T00:44:36.558Z,6.70
2019-03-23T00:47:06.893Z,7.00
2019-03-23T00:49:37.557Z,6.70
2019-03-23T00:52:07.858Z,7.10
2019-03-23T00:54:38.481Z,6.90
2019-03-23T00:57:09.345Z,7.10
2019-03-23T00:59:39.309Z,7.00
2019-03-23T01:02:09.275Z,6.80
2019-03-23T01:04:39.272Z,6.90
2019-03-23T01:07:09.592Z,6.70
2019-03-23T01:09:40.270Z,6.50
2019-03-23T01:12:11.689Z,6.70
2019-03-23T01:14:42.161Z,6.60
2019-03-23T01:17:12.719Z,6.90
2019-03-23T01:19:45.233Z,7.00
2019-03-23T01:22:15.279Z,6.70
2019-03-23T01:24:46.054Z,7.00
2019-03-23T01:27:16.719Z,6.80
2019-03-23T01:29:47.280Z,7.00
2019-03-23T01:32:17.345Z,6.70
2019-03-23T01:34:47.781Z,7.00
2019-03-23T01:37:18.504Z,6.70
2019-03-23T01:39:48.958Z,6.80
2019-03-23T01:42:19.364Z,7.00
2019-03-23T01:44:50.593Z,6.70
2019-03-23T01:47:20.956Z,7.10
2019-03-23T01:49:51.795Z,7.40
2019-03-23T01:52:21.815Z,7.30
2019-03-23T01:54:51.865Z,7.10
2019-03-23T01:57:22.306Z,7.00
2019-03-23T01:59:53.739Z,7.00
2019-03-23T02:02:24.106Z,7.40
2019-03-23T02:04:55.201Z,7.10
2019-03-23T02:07:25.252Z,7.60
2019-03-23T02:09:55.270Z,8.10
2019-03-23T02:12:25.609Z,7.30
2019-03-23T02:14:56.770Z,7.20
2019-03-23T02:17:26.701Z,7.20
2019-03-23T02:19:58.117Z,7.30
2019-03-23T02:22:28.290Z,7.50
2019-03-23T02:24:58.617Z,6.90
2019-03-23T02:27:28.770Z,6.90
2019-03-23T02:29:58.754Z,7.30
2019-03-23T02:32:29.422Z,7.30
2019-03-23T02:35:00.669Z,7.10
2019-03-23T02:37:31.104Z,7.00
2019-03-23T02:40:01.563Z,7.00
2019-03-23T02:42:31.775Z,7.10
2019-03-23T02:45:02.227Z,7.10
2019-03-23T02:47:33.473Z,7.50
2019-03-23T02:50:03.652Z,7.60
2019-03-23T02:52:35.108Z,7.70
2019-03-23T02:55:05.851Z,7.20
2019-03-23T02:57:36.268Z,7.30
2019-03-23T03:00:08.509Z,8.00
2019-03-23T03:02:46.924Z,7.20
2019-03-23T03:05:18.471Z,7.70
2019-03-23T03:07:48.493Z,7.40
2019-03-23T03:10:38.735Z,7.10
2019-03-23T03:13:09.126Z,7.40
2019-03-23T03:15:39.106Z,7.20
2019-03-23T03:18:19.711Z,7.50
2019-03-23T03:20:50.150Z,7.30
2019-03-23T03:23:20.248Z,7.00
2019-03-23T03:25:50.318Z,7.40
2019-03-23T03:28:20.339Z,7.60
2019-03-23T03:30:50.387Z,7.80
2019-03-23T03:33:20.765Z,7.70
2019-03-23T03:35:51.572Z,8.30
2019-03-23T03:38:21.580Z,8.80
2019-03-23T03:40:51.984Z,7.70
2019-03-23T03:43:22.605Z,8.40
2019-03-23T03:45:53.100Z,8.10
2019-03-23T03:48:23.646Z,8.40
2019-03-23T03:50:54.242Z,8.70
2019-03-23T03:53:25.145Z,7.70
2019-03-23T03:55:55.414Z,8.30
2019-03-23T03:58:25.745Z,7.80
2019-03-23T04:00:55.849Z,7.00
2019-03-23T04:03:26.736Z,6.80
2019-03-23T04:05:56.671Z,7.30
2019-03-23T04:08:27.254Z,6.90
2019-03-23T04:10:58.377Z,6.70
2019-03-23T04:13:28.473Z,6.70
2019-03-23T04:15:59.206Z,7.40
2019-03-23T04:18:29.529Z,6.90
2019-03-23T04:20:59.719Z,7.70
2019-03-23T04:23:40.063Z,7.70
2019-03-23T04:26:12.403Z,7.90
2019-03-23T04:28:42.446Z,7.90
2019-03-23T04:31:13.264Z,8.10
2019-03-23T04:33:49.600Z,8.50
2019-03-23T04:36:19.982Z,8.80
2019-03-23T04:38:59.528Z,7.90
2019-03-23T04:41:50.398Z,8.30
2019-03-23T04:44:21.774Z,7.70
2019-03-23T04:46:52.108Z,7.70
2019-03-23T04:49:22.984Z,7.90
2019-03-23T04:51:53.623Z,8.40
2019-03-23T04:54:24.045Z,8.30
2019-03-23T04:56:55.592Z,7.90
2019-03-23T04:59:26.057Z,7.80
2019-03-23T05:01:56.428Z,7.70
2019-03-23T05:04:26.531Z,8.00
2019-03-23T05:06:57.013Z,8.20
2019-03-23T05:09:27.737Z,7.90
2019-03-23T05:11:58.252Z,8.00
2019-03-23T05:14:28.747Z,7.70
2019-03-23T05:16:58.704Z,8.20
2019-03-23T05:19:28.768Z,7.40
2019-03-23T05:22:00.214Z,7.70
2019-03-23T05:24:30.878Z,7.50
2019-03-23T05:27:01.059Z,7.80
2019-03-23T05:29:31.398Z,7.80
2019-03-23T05:32:01.966Z,7.40
2019-03-23T05:34:33.004Z,7.50
2019-03-23T05:37:03.321Z,7.70
2019-03-23T05:39:33.621Z,8.10
2019-03-23T05:42:03.638Z,8.40
2019-03-23T05:44:33.709Z,8.50
2019-03-23T05:47:03.671Z,8.30
2019-03-23T05:49:33.847Z,8.30
2019-03-23T05:52:04.136Z,8.50
2019-03-23T05:54:35.249Z,8.70
2019-03-23T05:57:16.923Z,8.80
2019-03-23T06:00:00.392Z,8.80
2019-03-23T06:02:30.740Z,8.60
2019-03-23T06:05:00.729Z,8.70
2019-03-23T06:07:31.253Z,8.70
2019-03-23T06:10:02.354Z,8.20
2019-03-23T06:12:32.285Z,8.50
2019-03-23T06:15:02.661Z,8.80
2019-03-23T06:17:32.607Z,8.20
2019-03-23T06:20:04.714Z,8.60
2019-03-23T06:22:35.645Z,8.70
2019-03-23T06:25:08.214Z,8.70
2019-03-23T06:27:38.894Z,8.80
2019-03-23T06:30:09.407Z,8.80
2019-03-23T06:32:40.302Z,8.80
2019-03-23T06:35:10.774Z,8.90
2019-03-23T06:37:40.888Z,9.00
2019-03-23T06:40:12.114Z,8.90
2019-03-23T06:42:42.180Z,8.90
2019-03-23T06:45:12.688Z,8.80
2019-03-23T06:47:43.031Z,8.80
2019-03-23T06:50:13.786Z,9.00
2019-03-23T06:52:44.107Z,8.80
2019-03-23T06:55:14.241Z,9.00
2019-03-23T06:57:44.613Z,8.60
2019-03-23T07:00:15.089Z,8.90
2019-03-23T07:02:45.104Z,9.00
2019-03-23T07:05:15.694Z,8.60
2019-03-23T07:07:45.756Z,8.90
2019-03-23T07:10:16.251Z,9.00
2019-03-23T07:12:47.286Z,9.00
2019-03-23T07:15:20.295Z,9.10
2019-03-23T07:17:49.136Z,9.10
2019-03-23T07:20:19.533Z,8.90
2019-03-23T07:22:54.778Z,9.10
2019-03-23T07:25:24.063Z,9.20
2019-03-23T07:27:54.415Z,9.20
2019-03-23T07:30:24.885Z,9.40
2019-03-23T07:32:54.932Z,9.40
2019-03-23T07:35:25.751Z,9.50
2019-03-23T07:37:55.691Z,9.50
2019-03-23T07:40:26.013Z,9.60
2019-03-23T07:42:56.221Z,9.30
2019-03-23T07:45:26.277Z,9.60
2019-03-23T07:47:56.409Z,9.70
2019-03-23T07:50:26.572Z,9.70
2019-03-23T07:52:56.762Z,9.80
2019-03-23T07:55:27.175Z,9.80
2019-03-23T07:57:57.425Z,9.90
2019-03-23T08:00:27.528Z,9.90
2019-03-23T08:02:59.633Z,10.00
2019-03-23T08:05:29.761Z,10.20
2019-03-23T08:08:00.034Z,10.20
2019-03-23T08:10:31.696Z,10.20
2019-03-23T08:13:02.964Z,10.30
2019-03-23T08:15:33.139Z,10.00
2019-03-23T08:18:03.225Z,10.00
2019-03-23T08:20:40.530Z,9.40
2019-03-23T08:23:11.063Z,10.10
2019-03-23T08:25:42.227Z,10.30
2019-03-23T08:28:33.583Z,10.60
2019-03-23T08:31:00.323Z,10.90
2019-03-23T08:33:30.915Z,11.00
2019-03-23T08:36:01.377Z,11.30
2019-03-23T08:38:31.610Z,11.50
2019-03-23T08:41:01.708Z,11.30
2019-03-23T08:43:32.555Z,11.00
2019-03-23T08:46:15.263Z,11.40
2019-03-23T08:48:46.314Z,10.70
2019-03-23T08:51:17.213Z,10.90
2019-03-23T08:53:47.786Z,11.70
2019-03-23T08:56:18.097Z,11.80
2019-03-23T08:58:46.243Z,11.90
2019-03-23T09:01:16.626Z,12.10
2019-03-23T09:03:52.314Z,12.20
2019-03-23T09:06:19.238Z,11.60
2019-03-23T09:08:49.679Z,12.10
2019-03-23T09:11:20.849Z,12.20
2019-03-23T09:13:51.301Z,12.30
2019-03-23T09:16:21.633Z,12.40
2019-03-23T09:18:52.166Z,12.40
2019-03-23T09:21:22.809Z,12.20
2019-03-23T09:23:57.734Z,12.50
2019-03-23T09:26:28.276Z,12.60
2019-03-23T09:28:59.506Z,12.70
2019-03-23T09:31:30.257Z,12.60
2019-03-23T09:34:00.970Z,12.50
2019-03-23T09:36:31.550Z,12.70
2019-03-23T09:39:02.229Z,11.90
2019-03-23T09:41:32.420Z,11.90
2019-03-23T09:44:02.898Z,12.10
2019-03-23T09:46:33.321Z,12.40
2019-03-23T09:49:08.050Z,11.70
2019-03-23T09:51:38.467Z,12.60
2019-03-23T09:54:08.549Z,12.90
2019-03-23T09:56:39.102Z,13.00
2019-03-23T09:59:09.780Z,12.40
2019-03-23T10:01:48.401Z,12.30
2019-03-23T10:04:18.685Z,12.70
2019-03-23T10:06:48.677Z,13.10
2019-03-23T10:09:19.584Z,13.10
2019-03-23T10:11:49.699Z,13.00
2019-03-23T10:14:20.030Z,13.30
2019-03-23T10:16:51.135Z,13.40
2019-03-23T10:19:23.281Z,13.50
2019-03-23T10:21:54.272Z,13.60
2019-03-23T10:24:24.799Z,13.60
2019-03-23T10:26:55.776Z,13.70
2019-03-23T10:29:26.114Z,13.20
2019-03-23T10:31:56.159Z,13.40
2019-03-23T10:34:26.574Z,13.20
2019-03-23T10:36:57.512Z,13.50
2019-03-23T10:39:27.609Z,12.90
2019-03-23T10:41:58.396Z,12.30
2019-03-23T10:44:29.211Z,11.70
2019-03-23T10:46:59.666Z,10.40
2019-03-23T10:49:30.073Z,11.50
2019-03-23T10:52:00.785Z,11.90
2019-03-23T10:54:31.230Z,12.20
2019-03-23T10:57:01.334Z,12.10
2019-03-23T10:59:31.918Z,12.90
2019-03-23T11:02:02.048Z,12.50
2019-03-23T11:04:32.347Z,12.80
2019-03-23T11:07:03.130Z,12.90
2019-03-23T11:09:33.432Z,13.00
2019-03-23T11:12:03.718Z,12.40
2019-03-23T11:14:33.923Z,12.10
2019-03-23T11:17:04.450Z,12.50
2019-03-23T11:19:34.784Z,11.40
2019-03-23T11:22:05.279Z,11.90
2019-03-23T11:24:35.390Z,12.30
2019-03-23T11:27:06.586Z,12.00
2019-03-23T11:29:38.749Z,11.60
2019-03-23T11:32:09.395Z,11.20
2019-03-23T11:34:39.973Z,12.30
2019-03-23T11:37:10.504Z,12.50
2019-03-23T11:39:40.982Z,11.60
2019-03-23T11:42:11.040Z,11.10
2019-03-23T11:44:41.032Z,10.60
2019-03-23T11:47:11.139Z,11.90
2019-03-23T11:49:41.662Z,11.90
2019-03-23T11:52:12.137Z,11.30
2019-03-23T11:54:43.421Z,10.70
2019-03-23T11:57:13.767Z,10.60
2019-03-23T11:59:43.736Z,11.30
2019-03-23T12:02:16.795Z,11.40
2019-03-23T12:04:47.092Z,10.90
2019-03-23T12:07:17.520Z,12.00
2019-03-23T12:09:47.579Z,11.20
2019-03-23T12:12:18.871Z,11.20
2019-03-23T12:14:49.180Z,12.30
2019-03-23T12:17:19.614Z,12.00
2019-03-23T12:19:49.585Z,11.10
2019-03-23T12:22:25.693Z,11.50
2019-03-23T12:24:56.268Z,11.30
2019-03-23T12:27:26.276Z,11.00
2019-03-23T12:30:06.552Z,10.80
2019-03-23T12:32:28.284Z,10.60
2019-03-23T12:34:58.675Z,10.80
2019-03-23T12:37:28.910Z,10.30
2019-03-23T12:40:00.454Z,10.30
2019-03-23T12:42:30.900Z,9.90
2019-03-23T12:45:01.620Z,10.00
2019-03-23T12:47:31.651Z,10.30
2019-03-23T12:50:01.925Z,9.90
2019-03-23T12:52:34.866Z,9.90
2019-03-23T12:55:05.823Z,9.80
2019-03-23T12:57:36.596Z,10.20
2019-03-23T13:00:07.716Z,10.00
2019-03-23T13:02:38.097Z,10.20
2019-03-23T13:05:09.774Z,10.40
2019-03-23T13:07:40.914Z,9.80
2019-03-23T13:10:18.805Z,9.80
2019-03-23T13:12:49.336Z,9.60
2019-03-23T13:15:19.538Z,9.90
2019-03-23T13:18:03.728Z,9.90
2019-03-23T13:23:05.581Z,9.60
2019-03-23T13:25:35.840Z,9.60
2019-03-23T13:28:06.545Z,9.80
2019-03-23T13:30:39.736Z,9.70
2019-03-23T13:33:57.220Z,9.60
2019-03-23T13:36:28.350Z,9.80
2019-03-23T13:38:58.884Z,9.70
2019-03-23T13:41:29.775Z,9.60
2019-03-23T13:44:01.548Z,9.60
2019-03-23T13:46:31.970Z,9.60
2019-03-23T13:49:02.442Z,9.60
2019-03-23T13:51:32.958Z,10.00
2019-03-23T13:54:03.452Z,10.10
2019-03-23T13:56:33.612Z,9.80
2019-03-23T13:59:05.999Z,10.00
2019-03-23T14:01:36.529Z,10.40
2019-03-23T14:04:06.587Z,10.00
2019-03-23T14:06:37.295Z,10.00
2019-03-23T14:09:08.762Z,10.30
2019-03-23T14:11:40.662Z,9.60
2019-03-23T14:14:14.375Z,9.80
2019-03-23T14:16:44.719Z,10.10
2019-03-23T14:19:14.934Z,9.60
2019-03-23T14:21:45.228Z,9.60
2019-03-23T14:24:15.804Z,10.10
2019-03-23T14:26:45.976Z,9.90
2019-03-23T14:29:16.779Z,10.00
2019-03-23T14:31:47.954Z,10.30
2019-03-23T14:34:18.602Z,10.60
2019-03-23T14:36:49.551Z,10.20
2019-03-23T14:39:20.116Z,10.30
2019-03-23T14:41:50.736Z,10.30
2019-03-23T14:44:21.306Z,10.40
2019-03-23T14:46:52.392Z,10.40
2019-03-23T14:49:23.490Z,10.50
2019-03-23T14:51:55.276Z,10.50
2019-03-23T14:54:25.563Z,10.40
2019-03-23T14:56:56.090Z,11.30
2019-03-23T14:59:26.664Z,10.60
2019-03-23T15:01:57.301Z,10.50
2019-03-23T15:04:27.591Z,10.50
2019-03-23T15:06:57.957Z,10.70
2019-03-23T15:09:28.484Z,10.60
2019-03-23T15:11:59.701Z,10.70
2019-03-23T15:14:30.111Z,10.40
2019-03-23T15:17:01.840Z,10.80
2019-03-23T15:19:32.298Z,10.30
2019-03-23T15:22:02.333Z,10.60
2019-03-23T15:24:33.038Z,10.60
2019-03-23T15:27:22.694Z,10.30
2019-03-23T15:29:53.764Z,10.30
2019-03-23T15:32:24.210Z,10.50
2019-03-23T15:34:54.396Z,10.50
2019-03-23T15:37:24.822Z,10.00
2019-03-23T15:39:55.057Z,9.90
2019-03-23T15:42:25.304Z,10.20
2019-03-23T15:44:55.632Z,9.90
2019-03-23T15:47:25.712Z,9.80
2019-03-23T15:49:55.903Z,10.30
2019-03-23T15:52:34.644Z,10.00
2019-03-23T15:55:05.581Z,9.80
2019-03-23T15:57:35.721Z,10.40
2019-03-23T16:00:07.245Z,10.50
2019-03-23T16:02:37.688Z,9.90
2019-03-23T16:05:10.182Z,10.20
2019-03-23T16:07:42.230Z,9.50
2019-03-23T16:10:12.926Z,9.70
2019-03-23T16:12:43.610Z,9.80
2019-03-23T16:15:14.016Z,10.00
2019-03-23T16:17:44.185Z,9.60
2019-03-23T16:20:14.822Z,9.90
2019-03-23T16:22:51.140Z,10.20
2019-03-23T16:25:21.502Z,9.90
2019-03-23T16:27:51.761Z,10.00
2019-03-23T16:30:31.214Z,10.40
2019-03-23T16:33:01.546Z,10.70
2019-03-23T16:35:32.288Z,10.30
2019-03-23T16:38:02.644Z,10.20
2019-03-23T16:40:33.254Z,10.30
2019-03-23T16:43:06.188Z,10.50
2019-03-23T16:45:35.551Z,10.20
2019-03-23T16:48:06.102Z,9.40
2019-03-23T16:50:36.158Z,9.20
2019-03-23T16:53:06.171Z,9.80
2019-03-23T16:55:36.158Z,9.70
2019-03-23T16:58:15.785Z,9.90
2019-03-23T17:00:46.412Z,9.30
2019-03-23T17:03:16.702Z,9.20
2019-03-23T17:05:46.825Z,9.00
2019-03-23T17:08:17.580Z,8.30
2019-03-23T17:10:48.203Z,8.60
2019-03-23T17:13:34.783Z,9.40
2019-03-23T17:16:05.966Z,9.10
2019-03-23T17:18:38.176Z,9.00
2019-03-23T17:21:08.780Z,9.40
2019-03-23T17:23:39.300Z,9.30
2019-03-23T17:26:10.031Z,8.70
2019-03-23T17:28:40.335Z,7.90
2019-03-23T17:31:12.112Z,8.00
2019-03-23T17:33:48.220Z,8.40
2019-03-23T17:36:22.607Z,8.70
2019-03-23T17:38:53.195Z,9.40
2019-03-23T17:41:24.580Z,10.00
2019-03-23T17:43:54.637Z,10.40
2019-03-23T17:46:27.782Z,9.40
2019-03-23T17:48:58.393Z,8.70
2019-03-23T17:51:30.570Z,8.60
2019-03-23T17:54:02.691Z,8.60
2019-03-23T17:56:32.949Z,8.30
2019-03-23T17:59:05.238Z,8.80
2019-03-23T18:01:35.491Z,8.60
2019-03-23T18:04:06.339Z,9.20
2019-03-23T18:06:37.615Z,8.30
2019-03-23T18:09:09.257Z,9.10
2019-03-23T18:11:41.568Z,9.10
2019-03-23T18:14:12.338Z,9.10
2019-03-23T18:16:43.134Z,8.20
2019-03-23T18:19:13.138Z,9.20
2019-03-23T18:21:43.933Z,9.10
2019-03-23T18:24:14.803Z,9.40
2019-03-23T18:26:44.893Z,9.60
2019-03-23T18:29:14.974Z,8.80
2019-03-23T18:31:45.657Z,8.30
2019-03-23T18:34:16.312Z,8.80
2019-03-23T18:36:47.663Z,8.50
2019-03-23T18:39:27.077Z,8.90
2019-03-23T18:42:08.065Z,8.10
2019-03-23T18:44:38.849Z,8.40
2019-03-23T18:47:09.299Z,8.30
2019-03-23T18:49:40.460Z,8.30
2019-03-23T18:52:11.523Z,7.80
2019-03-23T18:54:43.379Z,8.10
2019-03-23T18:57:13.493Z,8.50
2019-03-23T18:59:49.646Z,8.50
2019-03-23T19:02:21.333Z,8.70
2019-03-23T19:04:51.795Z,8.70
2019-03-23T19:07:23.210Z,8.60
2019-03-23T19:09:54.200Z,8.40
2019-03-23T19:12:32.091Z,8.50
2019-03-23T19:15:03.584Z,8.50
2019-03-23T19:17:46.208Z,8.20
2019-03-23T19:21:10.208Z,7.90
2019-03-23T19:24:39.300Z,8.00
2019-03-23T19:27:11.334Z,7.80
2019-03-23T19:29:44.475Z,8.00
2019-03-23T19:32:17.905Z,8.10
2019-03-23T19:34:48.843Z,8.10
2019-03-23T19:37:19.203Z,8.10
2019-03-23T19:39:50.477Z,7.80
2019-03-23T19:42:21.862Z,7.90
2019-03-23T19:44:52.345Z,7.90
2019-03-23T19:47:24.776Z,7.90
2019-03-23T19:50:03.334Z,8.00
2019-03-23T19:52:46.770Z,8.00
2019-03-23T19:55:16.988Z,7.90
2019-03-23T19:57:47.192Z,7.90
2019-03-23T20:00:17.963Z,7.80
2019-03-23T20:02:48.446Z,7.90
2019-03-23T20:05:18.581Z,7.80
2019-03-23T20:07:49.017Z,7.70
2019-03-23T20:10:19.347Z,7.70
2019-03-23T20:12:49.993Z,7.60
2019-03-23T20:15:20.643Z,7.60
2019-03-23T20:17:51.114Z,7.60
2019-03-23T20:20:22.277Z,7.60
2019-03-23T20:22:53.123Z,7.60
2019-03-23T20:25:24.619Z,7.50
2019-03-23T20:27:54.949Z,7.50
2019-03-23T20:30:26.374Z,7.40
2019-03-23T20:32:56.718Z,7.50
2019-03-23T20:35:26.863Z,7.40
2019-03-23T20:38:02.141Z,7.30
2019-03-23T20:40:33.740Z,7.30
2019-03-23T20:43:08.456Z,7.20
2019-03-23T20:45:39.120Z,7.20
2019-03-23T20:48:09.704Z,7.20
2019-03-23T20:50:43.147Z,7.10
2019-03-23T20:53:16.621Z,7.10
2019-03-23T20:55:47.178Z,7.10
2019-03-23T20:58:18.162Z,7.10
2019-03-23T21:00:49.797Z,7.00
2019-03-23T21:03:24.744Z,7.00
2019-03-23T21:05:55.317Z,7.00
2019-03-23T21:08:26.934Z,7.00
2019-03-23T21:10:57.241Z,7.00
2019-03-23T21:13:29.013Z,6.90
2019-03-23T21:16:01.890Z,6.90
2019-03-23T21:18:40.154Z,6.90
2019-03-23T21:21:20.277Z,6.90
2019-03-23T21:23:52.134Z,6.80
2019-03-23T21:26:23.954Z,6.80
2019-03-23T21:28:54.321Z,6.70
2019-03-23T21:31:24.881Z,6.70
2019-03-23T21:33:55.039Z,6.70
2019-03-23T21:36:29.439Z,6.70
2019-03-23T21:39:07.528Z,6.60
2019-03-23T21:41:38.866Z,6.60
2019-03-23T21:44:08.987Z,6.60
2019-03-23T21:46:48.141Z,6.70
2019-03-23T21:49:19.899Z,6.60
2019-03-23T21:51:51.857Z,6.50
2019-03-23T21:54:22.503Z,6.50
2019-03-23T21:56:53.175Z,6.40
2019-03-23T21:59:26.097Z,6.40
2019-03-23T22:01:56.319Z,6.40
2019-03-23T22:04:35.699Z,6.40
2019-03-23T22:07:06.462Z,6.40
2019-03-23T22:09:37.641Z,6.40
2019-03-23T22:12:08.546Z,6.30
2019-03-23T22:14:48.844Z,6.30
2019-03-23T22:17:21.803Z,6.30
2019-03-23T22:19:52.876Z,6.20
2019-03-23T22:22:23.287Z,6.20
2019-03-23T22:24:54.197Z,6.20
2019-03-23T22:27:24.636Z,6.20
2019-03-23T22:29:55.371Z,6.20
2019-03-23T22:32:26.105Z,6.10
2019-03-23T22:34:57.831Z,6.10
2019-03-23T22:37:28.047Z,6.10
2019-03-23T22:39:59.749Z,6.00
2019-03-23T22:42:31.887Z,5.90
2019-03-23T22:45:03.023Z,5.90
2019-03-23T22:47:33.664Z,5.90
2019-03-23T22:50:04.324Z,5.90
2019-03-23T22:52:35.345Z,5.80
2019-03-23T22:55:09.851Z,5.80
2019-03-23T22:57:41.159Z,5.80
2019-03-23T23:00:14.072Z,5.70
2019-03-23T23:02:44.769Z,5.70
2019-03-23T23:05:15.478Z,5.70
2019-03-23T23:07:45.912Z,5.70
2019-03-23T23:10:16.475Z,5.60
2019-03-23T23:12:48.149Z,5.60
2019-03-23T23:15:18.537Z,5.60
2019-03-23T23:17:48.566Z,5.50
2019-03-23T23:20:19.245Z,5.50
2019-03-23T23:22:50.059Z,5.50
2019-03-23T23:25:20.280Z,5.50
2019-03-23T23:27:50.608Z,5.50
2019-03-23T23:30:21.011Z,5.40
2019-03-23T23:32:51.175Z,5.40
2019-03-23T23:35:21.916Z,5.40
2019-03-23T23:37:52.017Z,5.30
2019-03-23T23:40:22.479Z,5.30
2019-03-23T23:42:53.203Z,5.30
2019-03-23T23:45:23.844Z,5.30
2019-03-23T23:47:54.639Z,5.30
2019-03-23T23:50:24.969Z,5.30
2019-03-23T23:52:55.897Z,5.20
2019-03-23T23:55:26.388Z,5.20
2019-03-23T23:57:57.534Z,5.20
